createdAt,value
2023-12-08T00:00:52.840Z,17.48
2023-12-08T00:03:19.883Z,16.67
2023-12-08T00:05:46.628Z,16.27
2023-12-08T00:08:13.430Z,17.30
2023-12-08T00:10:40.040Z,15.57
2023-12-08T00:13:06.631Z,17.88
2023-12-08T00:15:33.340Z,16.58
2023-12-08T00:17:59.968Z,17.05
2023-12-08T00:20:27.109Z,16.38
2023-12-08T00:22:53.909Z,16.15
2023-12-08T00:25:20.584Z,15.77
2023-12-08T00:27:47.256Z,15.00
2023-12-08T00:30:14.203Z,14.80
2023-12-08T00:32:40.990Z,14.60
2023-12-08T00:35:08.445Z,16.88
2023-12-08T00:37:35.920Z,16.10
2023-12-08T00:40:03.498Z,16.58
2023-12-08T00:42:30.061Z,16.05
2023-12-08T00:44:56.797Z,15.57
2023-12-08T00:47:23.799Z,14.10
2023-12-08T00:49:50.635Z,14.98
2023-12-08T00:52:17.301Z,16.17
2023-12-08T00:54:43.947Z,16.13
2023-12-08T00:57:10.565Z,14.00
2023-12-08T00:59:37.317Z,15.93
2023-12-08T01:02:04.092Z,14.02
2023-12-08T01:04:30.717Z,16.30
2023-12-08T01:06:57.353Z,15.45
2023-12-08T01:09:23.920Z,15.60
2023-12-08T01:11:50.540Z,13.85
2023-12-08T01:14:17.589Z,15.60
2023-12-08T01:16:44.774Z,13.88
2023-12-08T01:19:12.687Z,13.88
2023-12-08T01:21:45.576Z,13.45
2023-12-08T01:24:13.311Z,14.90
2023-12-08T01:26:46.344Z,12.70
2023-12-08T01:29:25.089Z,13.40
2023-12-08T01:31:51.734Z,12.55
2023-12-08T01:34:19.200Z,14.38
2023-12-08T01:36:51.818Z,12.07
2023-12-08T01:39:18.614Z,11.70
2023-12-08T01:41:45.239Z,14.13
2023-12-08T01:44:11.882Z,14.40
2023-12-08T01:46:38.913Z,12.55
2023-12-08T01:49:07.138Z,11.73
2023-12-08T01:51:34.577Z,13.00
2023-12-08T01:54:01.497Z,11.13
2023-12-08T01:56:28.518Z,13.27
2023-12-08T01:58:55.620Z,12.90
2023-12-08T02:01:22.343Z,13.40
2023-12-08T02:03:51.809Z,12.25
2023-12-08T02:06:20.874Z,12.98
2023-12-08T02:08:51.139Z,12.57
2023-12-08T02:11:18.679Z,11.95
2023-12-08T02:13:46.159Z,13.60
2023-12-08T02:16:56.869Z,11.93
2023-12-08T02:19:24.239Z,12.82
2023-12-08T02:21:51.122Z,13.70
2023-12-08T02:24:20.820Z,13.43
2023-12-08T02:26:49.233Z,14.77
2023-12-08T02:29:16.454Z,13.70
2023-12-08T02:31:52.993Z,15.55
2023-12-08T02:34:22.966Z,15.27
2023-12-08T02:36:51.198Z,16.13
2023-12-08T02:39:19.058Z,14.23
2023-12-08T02:41:45.764Z,15.35
2023-12-08T02:44:12.478Z,14.65
2023-12-08T02:46:40.572Z,16.48
2023-12-08T02:49:07.307Z,16.70
2023-12-08T02:51:34.049Z,17.58
2023-12-08T02:54:00.756Z,18.20
2023-12-08T02:56:27.350Z,18.08
2023-12-08T02:58:54.859Z,17.60
2023-12-08T03:01:21.516Z,16.92
2023-12-08T03:03:48.231Z,20.15
2023-12-08T03:06:15.008Z,18.65
2023-12-08T03:08:41.711Z,18.10
2023-12-08T03:11:08.294Z,17.65
2023-12-08T03:13:34.863Z,17.40
2023-12-08T03:16:01.511Z,18.25
2023-12-08T03:18:28.178Z,18.08
2023-12-08T03:20:54.820Z,17.85
2023-12-08T03:23:21.448Z,16.70
2023-12-08T03:25:48.056Z,19.05
2023-12-08T03:28:14.635Z,16.30
2023-12-08T03:30:41.293Z,16.52
2023-12-08T03:33:07.993Z,117.82
2023-12-08T03:35:34.709Z,116.30
2023-12-08T03:38:01.389Z,34.40
2023-12-08T03:40:27.946Z,28.38
2023-12-08T03:42:54.525Z,23.40
2023-12-08T03:45:21.397Z,20.38
2023-12-08T03:47:48.208Z,16.95
2023-12-08T03:50:14.979Z,16.75
2023-12-08T03:52:41.560Z,15.18
2023-12-08T03:55:08.517Z,15.43
2023-12-08T03:57:35.161Z,14.63
2023-12-08T04:00:01.871Z,14.45
2023-12-08T04:02:28.668Z,13.20
2023-12-08T04:04:55.289Z,14.18
2023-12-08T04:07:21.999Z,12.43
2023-12-08T04:09:48.637Z,13.95
2023-12-08T04:12:15.234Z,12.20
2023-12-08T04:14:43.455Z,14.13
2023-12-08T04:17:11.222Z,12.65
2023-12-08T04:19:38.448Z,12.45
2023-12-08T04:22:05.212Z,11.15
2023-12-08T04:24:31.826Z,9.88
2023-12-08T04:26:58.440Z,8.88
2023-12-08T04:29:25.062Z,10.90
2023-12-08T04:31:51.642Z,10.75
2023-12-08T04:34:18.402Z,12.85
2023-12-08T04:36:45.992Z,13.48
2023-12-08T04:39:12.679Z,12.98
2023-12-08T04:41:39.441Z,14.30
2023-12-08T04:44:06.061Z,13.43
2023-12-08T04:46:32.648Z,14.40
2023-12-08T04:48:59.355Z,14.23
2023-12-08T04:51:26.110Z,12.88
2023-12-08T04:56:24.789Z,11.82
2023-12-08T04:58:51.636Z,12.55
2023-12-08T05:01:18.284Z,13.10
2023-12-08T05:03:45.029Z,12.65
2023-12-08T05:06:11.880Z,10.38
2023-12-08T05:08:40.109Z,11.90
2023-12-08T05:11:07.384Z,12.55
2023-12-08T05:13:34.435Z,13.63
2023-12-08T05:16:01.134Z,13.40
2023-12-08T05:18:27.883Z,13.80
2023-12-08T05:20:54.627Z,14.07
2023-12-08T05:23:21.336Z,13.35
2023-12-08T05:25:47.952Z,14.25
2023-12-08T05:28:14.733Z,13.32
2023-12-08T05:30:41.304Z,12.40
2023-12-08T05:33:08.121Z,11.77
2023-12-08T05:35:34.791Z,14.23
2023-12-08T05:38:01.437Z,13.75
2023-12-08T05:40:27.996Z,13.20
2023-12-08T05:42:54.585Z,12.05
2023-12-08T05:45:21.410Z,12.43
2023-12-08T05:47:48.228Z,12.07
2023-12-08T05:50:15.032Z,12.10
2023-12-08T05:52:41.805Z,10.63
2023-12-08T05:55:08.743Z,11.80
2023-12-08T05:57:35.434Z,9.35
2023-12-08T06:00:02.648Z,9.65
2023-12-08T06:02:29.271Z,9.52
2023-12-08T06:04:55.886Z,8.98
2023-12-08T06:07:22.556Z,9.95
2023-12-08T06:09:49.271Z,9.20
2023-12-08T06:12:15.999Z,10.00
2023-12-08T06:14:42.670Z,9.18
2023-12-08T06:17:09.257Z,7.78
2023-12-08T06:19:35.937Z,7.82
2023-12-08T06:22:02.630Z,8.85
2023-12-08T06:24:29.446Z,9.30
2023-12-08T06:26:56.170Z,9.70
2023-12-08T06:29:22.822Z,9.82
2023-12-08T06:31:49.461Z,9.73
2023-12-08T06:34:17.232Z,10.48
2023-12-08T06:36:49.381Z,10.00
2023-12-08T06:39:18.887Z,9.70
2023-12-08T06:41:45.956Z,9.65
2023-12-08T06:44:12.683Z,9.32
2023-12-08T06:46:39.425Z,9.10
2023-12-08T06:49:06.509Z,9.65
2023-12-08T06:51:37.117Z,9.88
2023-12-08T06:54:05.056Z,9.85
2023-12-08T06:56:31.735Z,10.25
2023-12-08T06:59:00.874Z,10.10
2023-12-08T07:01:29.503Z,10.15
2023-12-08T07:03:56.238Z,10.77
2023-12-08T07:06:23.845Z,14.68
2023-12-08T07:08:50.648Z,12.27
2023-12-08T07:11:18.566Z,14.55
2023-12-08T07:13:45.120Z,18.05
2023-12-08T07:16:11.954Z,16.25
2023-12-08T07:18:38.947Z,17.45
2023-12-08T07:21:06.301Z,18.15
2023-12-08T07:23:33.454Z,11.80
2023-12-08T07:26:01.124Z,17.55
2023-12-08T07:28:27.735Z,12.85
2023-12-08T07:30:54.353Z,20.55
2023-12-08T07:33:22.125Z,10.05
2023-12-08T07:35:49.006Z,11.02
2023-12-08T07:38:15.606Z,10.65
2023-12-08T07:40:42.188Z,11.30
2023-12-08T07:43:08.831Z,10.52
2023-12-08T07:45:35.535Z,18.73
2023-12-08T07:48:02.309Z,13.38
2023-12-08T07:50:28.929Z,11.50
2023-12-08T07:52:55.618Z,22.65
2023-12-08T07:55:22.226Z,13.35
2023-12-08T07:57:48.825Z,11.00
2023-12-08T08:00:15.941Z,13.07
2023-12-08T08:02:42.655Z,10.05
2023-12-08T08:05:09.473Z,10.50
2023-12-08T08:07:36.192Z,10.00
2023-12-08T08:10:03.592Z,9.50
2023-12-08T08:12:33.245Z,9.25
2023-12-08T08:14:59.980Z,18.77
2023-12-08T08:17:26.841Z,18.92
2023-12-08T08:19:53.612Z,18.20
2023-12-08T08:22:30.023Z,22.50
2023-12-08T08:25:00.415Z,19.33
2023-12-08T08:27:27.530Z,31.27
2023-12-08T08:29:54.598Z,35.25
2023-12-08T08:32:21.322Z,21.13
2023-12-08T08:34:47.979Z,27.23
2023-12-08T08:37:14.674Z,23.88
2023-12-08T08:39:41.798Z,20.50
2023-12-08T08:42:08.476Z,24.65
2023-12-08T08:44:35.153Z,24.30
2023-12-08T08:47:01.775Z,19.63
2023-12-08T08:49:28.805Z,27.42
2023-12-08T08:51:55.557Z,20.50
2023-12-08T08:54:22.327Z,20.42
2023-12-08T08:56:48.973Z,17.67
2023-12-08T08:59:15.731Z,14.45
2023-12-08T09:01:43.369Z,15.00
2023-12-08T09:04:10.505Z,19.50
2023-12-08T09:06:37.374Z,15.38
2023-12-08T09:09:05.588Z,14.57
2023-12-08T09:11:32.253Z,12.52
2023-12-08T09:13:58.859Z,11.27
2023-12-08T09:16:31.192Z,11.93
2023-12-08T09:18:57.991Z,11.45
2023-12-08T09:21:24.668Z,11.73
2023-12-08T09:23:51.271Z,12.38
2023-12-08T09:26:17.910Z,11.73
2023-12-08T09:28:44.519Z,14.93
2023-12-08T09:31:11.096Z,15.80
2023-12-08T09:33:37.983Z,16.73
2023-12-08T09:36:05.328Z,13.60
2023-12-08T09:38:34.509Z,13.75
2023-12-08T09:41:05.641Z,14.32
2023-12-08T09:43:57.315Z,13.55
2023-12-08T09:46:24.706Z,12.32
2023-12-08T09:48:53.116Z,14.27
2023-12-08T09:51:20.609Z,13.70
2023-12-08T09:53:49.546Z,12.90
2023-12-08T09:56:17.627Z,13.65
2023-12-08T09:58:46.523Z,13.52
2023-12-08T10:01:15.104Z,13.70
2023-12-08T10:03:42.315Z,14.88
2023-12-08T10:06:11.211Z,14.40
2023-12-08T10:08:38.388Z,12.68
2023-12-08T10:11:06.974Z,14.02
2023-12-08T10:13:34.199Z,14.55
2023-12-08T10:16:01.252Z,14.60
2023-12-08T10:18:29.879Z,15.27
2023-12-08T10:21:20.557Z,13.73
2023-12-08T10:23:48.040Z,13.77
2023-12-08T10:26:16.684Z,13.10
2023-12-08T10:28:44.262Z,12.35
2023-12-08T10:31:10.957Z,11.57
2023-12-08T10:33:37.716Z,12.93
2023-12-08T10:36:04.825Z,10.73
2023-12-08T10:38:31.579Z,11.45
2023-12-08T10:40:58.205Z,11.82
2023-12-08T10:43:26.715Z,11.23
2023-12-08T10:45:54.401Z,11.80
2023-12-08T10:48:22.468Z,12.05
2023-12-08T10:50:53.927Z,13.68
2023-12-08T10:53:22.298Z,12.43
2023-12-08T10:56:10.763Z,11.95
2023-12-08T10:58:43.208Z,11.98
2023-12-08T11:01:14.329Z,14.27
2023-12-08T11:03:54.143Z,12.48
2023-12-08T11:06:34.996Z,12.95
2023-12-08T11:09:07.655Z,12.80
2023-12-08T11:11:39.048Z,14.70
2023-12-08T11:14:14.305Z,13.95
2023-12-08T11:16:50.318Z,14.32
2023-12-08T11:19:20.333Z,14.32
2023-12-08T11:21:47.833Z,15.52
2023-12-08T11:24:15.079Z,15.55
2023-12-08T11:27:07.794Z,15.40
2023-12-08T11:29:59.306Z,16.35
2023-12-08T11:32:39.541Z,16.45
2023-12-08T11:35:13.480Z,14.25
2023-12-08T11:37:42.146Z,14.18
2023-12-08T11:40:12.433Z,15.15
2023-12-08T11:42:40.726Z,13.30
2023-12-08T11:45:12.071Z,14.60
2023-12-08T11:47:39.106Z,15.05
2023-12-08T11:50:06.698Z,14.50
2023-12-08T11:52:34.889Z,15.15
2023-12-08T11:55:17.454Z,14.82
2023-12-08T11:58:04.291Z,14.85
2023-12-08T12:00:32.805Z,15.98
2023-12-08T12:03:00.465Z,13.45
2023-12-08T12:05:27.787Z,14.32
2023-12-08T12:07:56.080Z,14.68
2023-12-08T12:10:27.166Z,14.32
2023-12-08T12:12:59.199Z,15.02
2023-12-08T12:15:26.950Z,14.73
2023-12-08T12:17:53.973Z,16.33
2023-12-08T12:20:21.141Z,13.82
2023-12-08T12:22:47.782Z,14.00
2023-12-08T12:25:14.457Z,13.43
2023-12-08T12:27:46.323Z,14.15
2023-12-08T12:30:13.735Z,14.05
2023-12-08T12:32:41.363Z,13.27
2023-12-08T12:35:08.924Z,13.48
2023-12-08T12:37:35.988Z,10.30
2023-12-08T12:40:02.630Z,9.82
2023-12-08T12:42:29.462Z,10.57
2023-12-08T12:44:56.129Z,10.50
2023-12-08T12:47:27.715Z,11.60
2023-12-08T12:50:08.644Z,11.30
2023-12-08T12:52:41.615Z,13.60
2023-12-08T12:55:30.381Z,11.75
2023-12-08T12:57:57.052Z,11.25
2023-12-08T13:00:35.778Z,12.65
2023-12-08T13:03:10.637Z,11.32
2023-12-08T13:05:48.011Z,11.45
2023-12-08T13:08:16.969Z,12.35
2023-12-08T13:10:45.451Z,12.43
2023-12-08T13:13:13.531Z,10.95
2023-12-08T13:15:41.205Z,11.23
2023-12-08T13:18:08.349Z,10.73
2023-12-08T13:20:41.903Z,11.20
2023-12-08T13:23:08.952Z,12.27
2023-12-08T13:25:35.630Z,9.35
2023-12-08T13:28:02.343Z,10.00
2023-12-08T13:30:29.259Z,9.13
2023-12-08T13:32:56.968Z,9.38
2023-12-08T13:35:23.963Z,9.55
2023-12-08T13:37:50.875Z,9.75
2023-12-08T13:40:17.575Z,9.68
2023-12-08T13:42:44.550Z,8.50
2023-12-08T13:45:11.414Z,8.57
2023-12-08T13:47:38.124Z,9.65
2023-12-08T13:50:05.373Z,10.32
2023-12-08T13:52:32.019Z,9.68
2023-12-08T13:54:58.675Z,10.00
2023-12-08T13:57:25.805Z,10.48
2023-12-08T13:59:53.821Z,11.30
2023-12-08T14:02:20.814Z,10.40
2023-12-08T14:04:47.546Z,10.50
2023-12-08T14:07:14.426Z,9.57
2023-12-08T14:09:42.816Z,9.40
2023-12-08T14:12:10.599Z,8.90
2023-12-08T14:14:37.607Z,8.57
2023-12-08T14:17:04.815Z,8.35
2023-12-08T14:19:31.533Z,9.25
2023-12-08T14:21:59.763Z,10.88
2023-12-08T14:24:27.045Z,11.05
2023-12-08T14:26:57.258Z,10.27
2023-12-08T14:29:24.037Z,9.27
2023-12-08T14:31:50.861Z,9.68
2023-12-08T14:34:17.707Z,8.60
2023-12-08T14:36:46.483Z,10.15
2023-12-08T14:39:13.156Z,10.25
2023-12-08T14:41:40.121Z,10.77
2023-12-08T14:44:06.715Z,10.23
2023-12-08T14:46:34.520Z,11.88
2023-12-08T14:49:01.609Z,12.75
2023-12-08T14:51:28.415Z,12.05
2023-12-08T14:53:55.583Z,13.93
2023-12-08T14:56:22.293Z,15.07
2023-12-08T14:58:49.166Z,18.13
2023-12-08T15:01:18.606Z,20.75
2023-12-08T15:03:46.261Z,20.73
2023-12-08T15:06:16.157Z,22.30
2023-12-08T15:08:43.507Z,21.75
2023-12-08T15:11:10.942Z,20.33
2023-12-08T15:13:37.788Z,20.75
2023-12-08T15:16:04.933Z,20.27
2023-12-08T15:18:31.769Z,22.13
2023-12-08T15:21:00.195Z,22.60
2023-12-08T15:23:32.998Z,24.63
2023-12-08T15:26:00.403Z,21.40
2023-12-08T15:28:27.051Z,22.80
2023-12-08T15:30:53.672Z,25.55
2023-12-08T15:33:22.214Z,22.77
2023-12-08T15:35:49.206Z,23.48
2023-12-08T15:38:15.921Z,23.75
2023-12-08T15:40:43.071Z,23.90
2023-12-08T15:43:09.792Z,22.88
2023-12-08T15:45:39.650Z,24.73
2023-12-08T15:48:06.438Z,24.10
2023-12-08T15:50:33.186Z,25.48
2023-12-08T15:53:00.190Z,24.33
2023-12-08T15:55:26.782Z,25.55
2023-12-08T15:57:53.875Z,24.00
2023-12-08T16:00:21.140Z,23.85
2023-12-08T16:02:48.037Z,25.67
2023-12-08T16:05:14.830Z,26.33
2023-12-08T16:07:42.957Z,25.38
2023-12-08T16:10:10.587Z,26.17
2023-12-08T16:12:37.337Z,24.98
2023-12-08T16:15:05.042Z,28.65
2023-12-08T16:17:32.231Z,25.45
2023-12-08T16:19:58.916Z,25.13
2023-12-08T16:22:25.737Z,25.33
2023-12-08T16:24:52.474Z,25.88
2023-12-08T16:27:19.123Z,24.77
2023-12-08T16:29:46.478Z,25.33
2023-12-08T16:32:13.949Z,26.23
2023-12-08T16:34:40.857Z,26.70
2023-12-08T16:37:07.802Z,26.45
2023-12-08T16:39:34.964Z,25.55
2023-12-08T16:42:01.846Z,26.42
2023-12-08T16:44:28.620Z,25.40
2023-12-08T16:46:55.407Z,24.88
2023-12-08T16:49:22.644Z,26.50
2023-12-08T16:51:51.183Z,27.50
2023-12-08T16:54:18.402Z,27.20
2023-12-08T16:56:45.266Z,26.85
2023-12-08T16:59:11.955Z,29.58
2023-12-08T17:01:39.122Z,29.48
2023-12-08T17:04:05.900Z,28.05
2023-12-08T17:06:33.526Z,27.83
2023-12-08T17:09:00.420Z,26.73
2023-12-08T17:11:27.044Z,28.27
2023-12-08T17:13:55.080Z,27.77
2023-12-08T17:16:22.009Z,30.48
2023-12-08T17:18:48.758Z,30.48
2023-12-08T17:21:15.497Z,33.95
2023-12-08T17:23:42.108Z,30.83
2023-12-08T17:26:08.804Z,29.02
2023-12-08T17:28:35.470Z,29.90
2023-12-08T17:31:02.188Z,28.23
2023-12-08T17:33:28.858Z,31.00
2023-12-08T17:35:55.573Z,31.45
2023-12-08T17:38:22.284Z,30.08
2023-12-08T17:40:49.950Z,29.02
2023-12-08T17:43:16.644Z,31.70
2023-12-08T17:45:43.351Z,29.73
2023-12-08T17:48:10.240Z,30.73
2023-12-08T17:50:36.909Z,31.80
2023-12-08T17:53:03.483Z,31.30
2023-12-08T17:55:30.127Z,31.73
2023-12-08T17:57:56.762Z,33.22
2023-12-08T18:00:24.507Z,32.03
2023-12-08T18:02:55.967Z,31.27
2023-12-08T18:05:22.924Z,31.27
2023-12-08T18:07:49.575Z,35.30
2023-12-08T18:10:16.303Z,33.78
2023-12-08T18:12:43.310Z,33.38
2023-12-08T18:15:10.545Z,32.03
2023-12-08T18:17:40.289Z,33.80
2023-12-08T18:20:07.952Z,34.63
2023-12-08T18:22:35.188Z,32.00
2023-12-08T18:25:01.779Z,33.53
2023-12-08T18:27:39.816Z,33.35
2023-12-08T18:30:15.664Z,33.03
2023-12-08T18:32:43.226Z,32.00
2023-12-08T18:35:10.028Z,34.40
2023-12-08T18:37:36.681Z,31.20
2023-12-08T18:40:04.554Z,29.58
2023-12-08T18:42:31.612Z,32.17
2023-12-08T18:44:58.499Z,32.80
2023-12-08T18:47:25.239Z,33.40
2023-12-08T18:49:51.987Z,34.03
2023-12-08T18:52:18.754Z,34.72
2023-12-08T18:54:45.369Z,34.22
2023-12-08T18:57:14.741Z,33.90
2023-12-08T18:59:41.903Z,32.92
2023-12-08T19:02:08.721Z,32.50
2023-12-08T19:04:35.482Z,32.75
2023-12-08T19:07:05.204Z,33.85
2023-12-08T19:09:32.052Z,33.72
2023-12-08T19:12:01.071Z,34.42
2023-12-08T19:14:29.542Z,33.38
2023-12-08T19:16:56.232Z,32.65
2023-12-08T19:19:25.152Z,34.85
2023-12-08T19:21:51.741Z,32.15
2023-12-08T19:24:18.695Z,32.00
2023-12-08T19:26:45.431Z,33.90
2023-12-08T19:29:12.127Z,33.15
2023-12-08T19:31:38.840Z,32.40
2023-12-08T19:34:05.910Z,32.70
2023-12-08T19:36:32.746Z,32.38
2023-12-08T19:39:01.049Z,32.65
2023-12-08T19:41:28.168Z,32.72
2023-12-08T19:43:55.796Z,30.05
2023-12-08T19:46:22.500Z,32.10
2023-12-08T19:48:49.269Z,31.52
2023-12-08T19:51:16.145Z,31.17
2023-12-08T19:53:43.047Z,32.53
2023-12-08T19:56:10.155Z,33.20
2023-12-08T19:58:36.839Z,33.55
2023-12-08T20:01:06.314Z,33.60
2023-12-08T20:03:33.429Z,32.80
2023-12-08T20:06:00.570Z,32.38
2023-12-08T20:08:28.348Z,31.77
2023-12-08T20:10:57.890Z,30.85
2023-12-08T20:13:24.633Z,30.75
2023-12-08T20:15:51.297Z,31.98
2023-12-08T20:18:18.201Z,31.60
2023-12-08T20:20:44.888Z,32.50
2023-12-08T20:23:12.611Z,31.02
2023-12-08T20:25:39.942Z,31.13
2023-12-08T20:28:06.757Z,32.58
2023-12-08T20:30:34.789Z,29.63
2023-12-08T20:33:02.897Z,31.10
2023-12-08T20:35:29.581Z,29.55
2023-12-08T20:37:56.571Z,32.00
2023-12-08T20:40:23.166Z,31.05
2023-12-08T20:42:49.964Z,32.45
2023-12-08T20:45:16.807Z,30.90
2023-12-08T20:47:43.694Z,31.05
2023-12-08T20:50:10.739Z,31.25
2023-12-08T20:52:37.543Z,30.73
2023-12-08T20:55:04.718Z,32.53
2023-12-08T20:57:31.550Z,32.65
2023-12-08T20:59:58.268Z,31.25
2023-12-08T21:02:25.051Z,31.45
2023-12-08T21:04:52.022Z,31.70
2023-12-08T21:07:18.852Z,30.17
2023-12-08T21:09:45.491Z,30.60
2023-12-08T21:12:12.558Z,30.35
2023-12-08T21:14:39.219Z,30.48
2023-12-08T21:17:05.854Z,31.85
2023-12-08T21:19:32.757Z,31.58
2023-12-08T21:22:02.626Z,36.13
2023-12-08T21:24:29.615Z,35.97
2023-12-08T21:26:56.257Z,36.15
2023-12-08T21:29:23.983Z,34.90
2023-12-08T21:31:52.250Z,33.13
2023-12-08T21:34:19.000Z,31.65
2023-12-08T21:36:45.867Z,36.15
2023-12-08T21:39:12.673Z,36.13
2023-12-08T21:41:39.387Z,36.70
2023-12-08T21:44:07.721Z,34.75
2023-12-08T21:46:34.783Z,34.20
2023-12-08T21:49:01.972Z,32.53
2023-12-08T21:51:30.789Z,33.30
2023-12-08T21:53:57.853Z,34.20
2023-12-08T21:56:29.562Z,35.22
2023-12-08T21:58:58.577Z,33.63
2023-12-08T22:01:25.521Z,31.30
2023-12-08T22:03:52.831Z,33.42
2023-12-08T22:06:19.547Z,34.42
2023-12-08T22:08:46.497Z,35.22
2023-12-08T22:11:13.094Z,35.33
2023-12-08T22:13:39.974Z,34.47
2023-12-08T22:16:07.028Z,35.35
2023-12-08T22:18:34.008Z,36.63
2023-12-08T22:21:00.844Z,30.15
2023-12-08T22:23:28.125Z,32.38
2023-12-08T22:25:54.703Z,32.85
2023-12-08T22:28:24.175Z,33.28
2023-12-08T22:30:50.878Z,34.97
2023-12-08T22:33:17.620Z,32.75
2023-12-08T22:35:44.458Z,34.17
2023-12-08T22:38:12.241Z,31.60
2023-12-08T22:40:38.867Z,32.20
2023-12-08T22:43:05.531Z,31.15
2023-12-08T22:45:34.010Z,34.28
2023-12-08T22:48:01.128Z,35.10
2023-12-08T22:50:35.433Z,33.83
2023-12-08T22:53:05.601Z,33.75
2023-12-08T22:55:32.177Z,34.33
2023-12-08T22:57:58.966Z,33.60
2023-12-08T23:00:25.747Z,33.00
2023-12-08T23:02:53.209Z,30.35
2023-12-08T23:05:20.393Z,33.45
2023-12-08T23:07:47.124Z,32.17
2023-12-08T23:10:14.134Z,31.73
2023-12-08T23:12:41.429Z,34.25
2023-12-08T23:15:09.441Z,32.05
2023-12-08T23:17:37.196Z,31.60
2023-12-08T23:20:04.315Z,34.67
2023-12-08T23:22:30.911Z,33.25
2023-12-08T23:24:57.539Z,31.88
2023-12-08T23:27:24.173Z,30.75
2023-12-08T23:29:50.840Z,32.92
2023-12-08T23:32:17.439Z,31.73
2023-12-08T23:34:44.423Z,31.88
2023-12-08T23:37:11.239Z,32.03
2023-12-08T23:39:39.523Z,30.88
2023-12-08T23:42:06.805Z,31.13
2023-12-08T23:44:33.675Z,33.33
2023-12-08T23:47:00.740Z,32.90
2023-12-08T23:49:27.544Z,31.10
2023-12-08T23:51:54.244Z,33.05
2023-12-08T23:54:20.936Z,34.08
2023-12-08T23:56:47.507Z,31.55
2023-12-08T23:59:14.439Z,33.35
